createdAt,value
2022-12-08T00:01:34.158Z,20.17
2022-12-08T00:04:04.163Z,20.08
2022-12-08T00:06:58.025Z,17.62
2022-12-08T00:09:38.596Z,15.32
2022-12-08T00:12:13.012Z,15.88
2022-12-08T00:14:45.945Z,14.40
2022-12-08T00:17:15.992Z,13.05
2022-12-08T00:19:44.327Z,13.48
2022-12-08T00:22:14.671Z,12.88
2022-12-08T00:24:45.093Z,11.97
2022-12-08T00:27:17.512Z,12.03
2022-12-08T00:29:45.297Z,12.28
2022-12-08T00:32:14.580Z,12.10
2022-12-08T00:34:42.324Z,11.10
2022-12-08T00:37:10.231Z,12.55
2022-12-08T00:39:37.795Z,11.53
2022-12-08T00:42:14.089Z,11.35
2022-12-08T00:44:44.357Z,11.70
2022-12-08T00:47:13.549Z,20.00
2022-12-08T00:49:41.822Z,28.50
2022-12-08T00:52:09.667Z,41.90
2022-12-08T00:54:37.339Z,33.90
2022-12-08T00:57:05.302Z,16.77
2022-12-08T00:59:33.035Z,13.98
2022-12-08T01:02:00.770Z,17.30
2022-12-08T01:04:28.405Z,20.15
2022-12-08T01:06:55.982Z,17.52
2022-12-08T01:09:23.375Z,17.70
2022-12-08T01:11:50.965Z,15.35
2022-12-08T01:14:18.308Z,15.35
2022-12-08T01:16:46.090Z,14.30
2022-12-08T01:19:16.625Z,15.70
2022-12-08T01:21:45.343Z,17.30
2022-12-08T01:24:18.123Z,18.98
2022-12-08T01:26:46.517Z,14.53
2022-12-08T01:29:14.648Z,11.88
2022-12-08T01:31:42.404Z,10.63
2022-12-08T01:34:11.622Z,9.83
2022-12-08T01:36:39.799Z,9.50
2022-12-08T01:39:11.961Z,10.00
2022-12-08T01:41:39.464Z,9.75
2022-12-08T01:44:12.323Z,9.13
2022-12-08T01:46:43.059Z,9.33
2022-12-08T01:49:30.666Z,9.78
2022-12-08T01:52:29.204Z,11.88
2022-12-08T01:55:02.328Z,14.20
2022-12-08T01:57:37.938Z,12.18
2022-12-08T02:00:10.303Z,11.18
2022-12-08T02:03:04.306Z,11.18
2022-12-08T02:08:06.222Z,13.20
2022-12-08T02:10:38.050Z,11.85
2022-12-08T02:13:09.223Z,13.53
2022-12-08T02:15:56.591Z,14.03
2022-12-08T02:18:38.475Z,15.13
2022-12-08T02:21:40.321Z,14.07
2022-12-08T02:24:38.001Z,15.35
2022-12-08T02:27:34.654Z,16.23
2022-12-08T02:30:25.832Z,19.02
2022-12-08T02:33:21.674Z,15.30
2022-12-08T02:36:16.205Z,13.35
2022-12-08T02:39:13.347Z,11.65
2022-12-08T02:42:00.889Z,12.40
2022-12-08T02:44:36.385Z,12.00
2022-12-08T02:47:12.346Z,11.22
2022-12-08T02:49:40.436Z,11.08
2022-12-08T02:52:22.591Z,10.48
2022-12-08T02:55:03.595Z,10.75
2022-12-08T02:58:05.605Z,10.68
2022-12-08T03:00:44.495Z,10.43
2022-12-08T03:03:26.347Z,10.20
2022-12-08T03:06:23.336Z,11.25
2022-12-08T03:09:05.734Z,11.30
2022-12-08T03:11:41.760Z,10.48
2022-12-08T03:14:13.222Z,10.60
2022-12-08T03:16:45.327Z,10.13
2022-12-08T03:19:32.924Z,15.15
2022-12-08T03:22:03.194Z,15.43
2022-12-08T03:24:36.085Z,11.40
2022-12-08T03:27:17.800Z,10.88
2022-12-08T03:29:53.331Z,10.63
2022-12-08T03:32:53.521Z,9.88
2022-12-08T03:35:25.980Z,10.20
2022-12-08T03:38:10.596Z,11.03
2022-12-08T03:40:39.281Z,10.32
2022-12-08T03:43:07.139Z,8.60
2022-12-08T03:45:35.117Z,8.80
2022-12-08T03:48:02.944Z,11.57
2022-12-08T03:50:30.715Z,12.00
2022-12-08T03:52:58.162Z,11.22
2022-12-08T03:55:25.511Z,12.73
2022-12-08T03:57:53.132Z,11.53
2022-12-08T04:00:21.445Z,10.63
2022-12-08T04:02:49.006Z,18.90
2022-12-08T04:05:16.892Z,14.20
2022-12-08T04:07:44.518Z,10.68
2022-12-08T04:10:12.385Z,10.05
2022-12-08T04:12:39.989Z,10.60
2022-12-08T04:15:09.684Z,9.85
2022-12-08T04:17:37.513Z,9.60
2022-12-08T04:20:07.207Z,10.38
2022-12-08T04:22:34.921Z,12.53
2022-12-08T04:25:02.712Z,12.80
2022-12-08T04:27:30.598Z,12.37
2022-12-08T04:29:58.349Z,12.98
2022-12-08T04:32:25.857Z,12.18
2022-12-08T04:34:53.728Z,10.48
2022-12-08T04:37:21.370Z,10.28
2022-12-08T04:39:49.232Z,10.55
2022-12-08T04:42:16.866Z,10.70
2022-12-08T04:44:44.374Z,11.48
2022-12-08T04:47:11.901Z,13.38
2022-12-08T04:49:39.904Z,12.90
2022-12-08T04:52:07.132Z,12.05
2022-12-08T04:54:35.073Z,11.93
2022-12-08T04:57:02.563Z,12.68
2022-12-08T04:59:30.302Z,10.98
2022-12-08T05:01:58.132Z,9.93
2022-12-08T05:04:25.882Z,10.15
2022-12-08T05:06:53.419Z,9.73
2022-12-08T05:09:21.816Z,10.68
2022-12-08T05:11:49.474Z,9.98
2022-12-08T05:14:19.061Z,12.23
2022-12-08T05:16:47.551Z,13.28
2022-12-08T05:19:16.306Z,15.00
2022-12-08T05:21:45.295Z,15.13
2022-12-08T05:24:13.208Z,18.10
2022-12-08T05:26:40.721Z,20.85
2022-12-08T05:29:08.156Z,23.52
2022-12-08T05:31:35.896Z,27.95
2022-12-08T05:34:03.845Z,26.68
2022-12-08T05:36:31.445Z,24.45
2022-12-08T05:38:59.376Z,24.52
2022-12-08T05:41:26.939Z,21.55
2022-12-08T05:43:54.511Z,21.57
2022-12-08T05:46:22.303Z,23.25
2022-12-08T05:48:49.989Z,27.70
2022-12-08T05:51:23.261Z,29.57
2022-12-08T05:53:52.274Z,23.95
2022-12-08T05:56:21.410Z,19.02
2022-12-08T05:58:50.165Z,20.17
2022-12-08T06:01:27.744Z,21.68
2022-12-08T06:03:57.508Z,27.27
2022-12-08T06:06:25.409Z,29.42
2022-12-08T06:08:52.950Z,33.92
2022-12-08T06:11:25.762Z,31.10
2022-12-08T06:13:55.391Z,25.75
2022-12-08T06:16:25.537Z,25.48
2022-12-08T06:18:53.484Z,22.37
2022-12-08T06:21:21.523Z,25.20
2022-12-08T06:23:52.320Z,24.92
2022-12-08T06:26:21.034Z,21.00
2022-12-08T06:28:49.913Z,19.02
2022-12-08T06:31:22.476Z,18.87
2022-12-08T06:33:50.665Z,17.70
2022-12-08T06:36:21.543Z,19.05
2022-12-08T06:38:50.034Z,20.00
2022-12-08T06:41:18.011Z,19.95
2022-12-08T06:43:46.031Z,19.48
2022-12-08T06:46:18.833Z,20.23
2022-12-08T06:48:47.622Z,18.57
2022-12-08T06:51:19.140Z,16.62
2022-12-08T06:53:47.090Z,16.23
2022-12-08T06:56:18.161Z,19.90
2022-12-08T06:58:52.065Z,15.43
2022-12-08T07:01:15.807Z,14.80
2022-12-08T07:03:43.265Z,17.07
2022-12-08T07:06:18.251Z,16.55
2022-12-08T07:08:46.024Z,16.65
2022-12-08T07:11:19.619Z,19.55
2022-12-08T07:13:43.613Z,24.07
2022-12-08T07:16:12.858Z,28.90
2022-12-08T07:18:42.387Z,30.17
2022-12-08T07:21:12.786Z,23.65
2022-12-08T07:23:41.088Z,22.55
2022-12-08T07:26:12.115Z,22.05
2022-12-08T07:28:42.064Z,23.30
2022-12-08T07:31:22.755Z,23.35
2022-12-08T07:33:51.131Z,23.57
2022-12-08T07:36:19.036Z,25.72
2022-12-08T07:38:46.858Z,20.50
2022-12-08T07:41:17.955Z,21.02
2022-12-08T07:43:45.956Z,25.72
2022-12-08T07:46:16.018Z,30.75
2022-12-08T07:48:44.712Z,32.25
2022-12-08T07:51:15.367Z,30.08
2022-12-08T07:53:49.897Z,21.45
2022-12-08T07:56:14.872Z,18.42
2022-12-08T07:58:44.429Z,17.80
2022-12-08T08:01:22.693Z,16.73
2022-12-08T08:03:50.575Z,16.75
2022-12-08T08:06:18.167Z,20.17
2022-12-08T08:08:45.923Z,19.30
2022-12-08T08:11:20.778Z,16.05
2022-12-08T08:13:43.164Z,15.15
2022-12-08T08:16:13.083Z,22.60
2022-12-08T08:18:41.099Z,22.07
2022-12-08T08:21:43.188Z,17.05
2022-12-08T08:23:38.539Z,13.90
2022-12-08T08:26:06.234Z,13.20
2022-12-08T08:28:34.949Z,13.65
2022-12-08T08:31:02.694Z,15.55
2022-12-08T08:33:30.355Z,15.78
2022-12-08T08:35:58.579Z,23.50
2022-12-08T08:38:26.162Z,20.92
2022-12-08T08:40:53.843Z,19.57
2022-12-08T08:43:36.022Z,20.48
2022-12-08T08:46:00.816Z,16.27
2022-12-08T08:48:30.397Z,15.08
2022-12-08T08:50:58.531Z,17.50
2022-12-08T08:53:26.201Z,21.60
2022-12-08T08:55:54.024Z,20.43
2022-12-08T08:58:21.481Z,19.23
2022-12-08T09:00:48.774Z,19.37
2022-12-08T09:03:16.765Z,17.55
2022-12-08T09:05:44.632Z,18.65
2022-12-08T09:08:12.321Z,16.95
2022-12-08T09:10:40.319Z,16.87
2022-12-08T09:13:08.583Z,18.75
2022-12-08T09:15:36.854Z,18.60
2022-12-08T09:18:06.307Z,19.67
2022-12-08T09:20:35.317Z,19.75
2022-12-08T09:23:02.772Z,18.77
2022-12-08T09:25:30.549Z,18.40
2022-12-08T09:27:58.024Z,18.55
2022-12-08T09:30:25.724Z,18.55
2022-12-08T09:32:53.461Z,19.02
2022-12-08T09:35:21.133Z,20.97
2022-12-08T09:37:48.603Z,20.82
2022-12-08T09:40:20.313Z,21.05
2022-12-08T09:42:59.233Z,23.15
2022-12-08T09:45:30.684Z,25.55
2022-12-08T09:48:15.277Z,23.25
2022-12-08T09:50:53.589Z,23.42
2022-12-08T09:53:37.807Z,21.30
2022-12-08T09:56:17.221Z,22.90
2022-12-08T09:59:10.248Z,24.35
2022-12-08T10:01:41.453Z,24.07
2022-12-08T10:04:23.795Z,22.55
2022-12-08T10:07:07.059Z,21.82
2022-12-08T10:10:03.591Z,26.37
2022-12-08T10:12:39.691Z,26.50
2022-12-08T10:15:46.268Z,24.15
2022-12-08T10:18:21.883Z,19.45
2022-12-08T10:20:51.443Z,18.05
2022-12-08T10:23:30.357Z,19.27
2022-12-08T10:26:05.663Z,18.00
2022-12-08T10:28:34.441Z,18.15
2022-12-08T10:31:02.221Z,19.17
2022-12-08T10:33:32.320Z,20.48
2022-12-08T10:36:04.304Z,19.17
2022-12-08T10:38:35.620Z,16.93
2022-12-08T10:41:13.972Z,16.55
2022-12-08T10:44:00.668Z,20.15
2022-12-08T10:46:29.720Z,22.22
2022-12-08T10:49:09.224Z,16.17
2022-12-08T10:51:43.135Z,13.85
2022-12-08T10:54:33.430Z,14.70
2022-12-08T10:57:01.031Z,13.80
2022-12-08T10:59:29.058Z,12.20
2022-12-08T11:01:57.175Z,12.73
2022-12-08T11:04:37.694Z,13.45
2022-12-08T11:07:08.788Z,17.40
2022-12-08T11:09:50.251Z,16.62
2022-12-08T11:12:22.637Z,17.25
2022-12-08T11:14:58.525Z,20.17
2022-12-08T11:17:29.804Z,25.43
2022-12-08T11:20:12.004Z,23.75
2022-12-08T11:22:48.347Z,22.90
2022-12-08T11:25:26.621Z,20.48
2022-12-08T11:28:00.475Z,17.92
2022-12-08T11:30:33.830Z,19.23
2022-12-08T11:33:07.120Z,19.73
2022-12-08T11:35:41.665Z,20.88
2022-12-08T11:38:23.674Z,13.65
2022-12-08T11:40:46.091Z,13.40
2022-12-08T11:43:25.179Z,12.18
2022-12-08T11:46:20.836Z,11.05
2022-12-08T11:49:10.535Z,10.30
2022-12-08T11:52:01.863Z,10.98
2022-12-08T11:54:49.601Z,11.68
2022-12-08T11:57:18.974Z,13.30
2022-12-08T11:59:51.859Z,13.62
2022-12-08T12:02:27.241Z,18.32
2022-12-08T12:05:09.143Z,14.28
2022-12-08T12:08:05.213Z,13.25
2022-12-08T12:10:50.298Z,13.35
2022-12-08T12:13:38.399Z,15.38
2022-12-08T12:16:34.479Z,13.48
2022-12-08T12:19:05.509Z,14.40
2022-12-08T12:21:40.605Z,14.58
2022-12-08T12:24:25.513Z,14.83
2022-12-08T12:27:02.967Z,12.37
2022-12-08T12:29:34.858Z,12.70
2022-12-08T12:32:06.146Z,12.68
2022-12-08T12:34:38.447Z,12.23
2022-12-08T12:37:10.550Z,13.15
2022-12-08T12:39:59.082Z,14.18
2022-12-08T12:42:41.464Z,12.18
2022-12-08T12:45:20.459Z,11.95
2022-12-08T12:48:02.361Z,13.58
2022-12-08T12:50:46.109Z,20.55
2022-12-08T12:56:03.353Z,25.08
2022-12-08T12:58:36.024Z,19.57
2022-12-08T13:01:24.473Z,15.63
2022-12-08T13:04:08.093Z,13.48
2022-12-08T13:06:41.084Z,12.25
2022-12-08T13:09:22.595Z,11.80
2022-12-08T13:11:55.000Z,13.13
2022-12-08T13:14:33.743Z,13.75
2022-12-08T13:17:05.189Z,14.53
2022-12-08T13:19:33.964Z,15.18
2022-12-08T13:22:01.553Z,12.20
2022-12-08T13:24:33.816Z,11.68
2022-12-08T13:27:10.412Z,11.60
2022-12-08T13:29:39.112Z,13.65
2022-12-08T13:32:15.006Z,10.18
2022-12-08T13:34:47.922Z,9.15
2022-12-08T13:37:53.849Z,9.95
2022-12-08T13:40:20.566Z,10.72
2022-12-08T13:43:15.061Z,11.10
2022-12-08T13:49:09.971Z,18.25
2022-12-08T13:57:02.670Z,15.93
2022-12-08T13:59:32.169Z,16.25
2022-12-08T14:02:05.234Z,18.57
2022-12-08T14:04:54.621Z,16.85
2022-12-08T14:07:03.670Z,17.30
2022-12-08T14:09:36.958Z,17.95
2022-12-08T14:12:18.968Z,19.35
2022-12-08T14:15:02.976Z,18.48
2022-12-08T14:17:22.874Z,18.52
2022-12-08T14:20:01.583Z,15.85
2022-12-08T14:22:36.798Z,16.12
2022-12-08T14:25:09.269Z,17.85
2022-12-08T14:27:38.270Z,18.37
2022-12-08T14:30:20.426Z,20.77
2022-12-08T14:33:00.478Z,31.25
2022-12-08T14:35:34.720Z,44.70
2022-12-08T14:38:15.909Z,40.45
2022-12-08T14:40:47.335Z,46.08
2022-12-08T14:43:20.626Z,36.35
2022-12-08T14:45:51.266Z,30.37
2022-12-08T14:48:36.633Z,27.73
2022-12-08T14:51:16.090Z,23.55
2022-12-08T14:54:02.703Z,30.30
2022-12-08T14:56:44.542Z,38.38
2022-12-08T14:59:37.136Z,45.48
2022-12-08T15:02:23.554Z,41.50
2022-12-08T15:05:05.301Z,38.75
2022-12-08T15:07:52.517Z,40.40
2022-12-08T15:10:28.104Z,30.92
2022-12-08T15:13:17.053Z,28.70
2022-12-08T15:15:57.305Z,22.73
2022-12-08T15:18:40.953Z,22.52
2022-12-08T15:21:12.397Z,26.12
2022-12-08T15:23:46.190Z,20.62
2022-12-08T15:26:21.618Z,15.55
2022-12-08T15:28:49.547Z,16.17
2022-12-08T15:31:18.537Z,13.28
2022-12-08T15:33:46.222Z,12.58
2022-12-08T15:36:13.911Z,15.18
2022-12-08T15:38:43.202Z,15.93
2022-12-08T15:41:14.992Z,23.02
2022-12-08T15:43:40.278Z,21.85
2022-12-08T15:46:07.943Z,18.30
2022-12-08T15:48:37.643Z,15.63
2022-12-08T15:51:05.541Z,19.42
2022-12-08T15:53:33.082Z,20.02
2022-12-08T15:58:54.616Z,28.65
2022-12-08T16:01:06.549Z,24.25
2022-12-08T16:04:19.786Z,26.50
2022-12-08T16:06:50.791Z,26.60
2022-12-08T16:08:56.290Z,23.90
2022-12-08T16:11:56.340Z,23.18
2022-12-08T16:14:14.906Z,21.70
2022-12-08T16:16:26.194Z,25.90
2022-12-08T16:18:54.059Z,25.10
2022-12-08T16:21:57.847Z,22.95
2022-12-08T16:23:51.044Z,27.02
2022-12-08T16:27:06.961Z,24.63
2022-12-08T16:28:54.361Z,24.60
2022-12-08T16:31:23.187Z,22.15
2022-12-08T16:33:50.417Z,24.90
2022-12-08T16:36:18.183Z,36.05
2022-12-08T16:38:45.766Z,42.20
2022-12-08T16:41:33.969Z,29.60
2022-12-08T16:44:05.844Z,29.70
2022-12-08T16:46:34.425Z,30.62
2022-12-08T16:49:01.964Z,37.13
2022-12-08T16:51:29.347Z,36.20
2022-12-08T16:53:57.775Z,31.35
2022-12-08T16:56:32.189Z,30.68
2022-12-08T16:58:55.517Z,30.48
2022-12-08T17:01:23.319Z,29.95
2022-12-08T17:04:14.420Z,28.57
2022-12-08T17:06:20.686Z,31.77
2022-12-08T17:08:48.250Z,29.60
2022-12-08T17:11:27.214Z,28.98
2022-12-08T17:13:54.608Z,25.30
2022-12-08T17:16:22.426Z,23.05
2022-12-08T17:18:50.512Z,24.75
2022-12-08T17:21:18.174Z,21.25
2022-12-08T17:23:46.648Z,19.90
2022-12-08T17:26:14.749Z,21.50
2022-12-08T17:28:59.971Z,22.10
2022-12-08T17:31:15.427Z,20.52
2022-12-08T17:33:43.631Z,21.30
2022-12-08T17:36:15.318Z,19.00
2022-12-08T17:38:43.827Z,20.23
2022-12-08T17:41:11.737Z,25.57
2022-12-08T17:43:39.372Z,26.65
2022-12-08T17:46:07.068Z,25.60
2022-12-08T17:48:35.232Z,27.95
2022-12-08T17:51:02.824Z,24.67
2022-12-08T17:53:34.282Z,23.25
2022-12-08T17:55:59.402Z,25.65
2022-12-08T17:58:27.161Z,27.75
2022-12-08T18:00:55.004Z,33.85
2022-12-08T18:03:22.516Z,33.60
2022-12-08T18:05:50.409Z,32.95
2022-12-08T18:08:17.851Z,31.77
2022-12-08T18:10:46.454Z,36.55
2022-12-08T18:13:13.955Z,47.98
2022-12-08T18:15:41.602Z,43.70
2022-12-08T18:18:09.049Z,34.73
2022-12-08T18:20:37.181Z,28.47
2022-12-08T18:23:04.948Z,25.88
2022-12-08T18:25:32.644Z,24.23
2022-12-08T18:28:00.271Z,23.18
2022-12-08T18:30:28.019Z,25.05
2022-12-08T18:32:57.429Z,25.92
2022-12-08T18:35:26.542Z,22.80
2022-12-08T18:37:54.529Z,24.15
2022-12-08T18:40:22.619Z,22.25
2022-12-08T18:42:50.383Z,22.40
2022-12-08T18:45:22.447Z,20.15
2022-12-08T18:47:51.353Z,19.73
2022-12-08T18:50:19.464Z,25.88
2022-12-08T18:52:47.159Z,32.40
2022-12-08T18:55:15.384Z,29.45
2022-12-08T18:57:43.580Z,29.52
2022-12-08T19:00:17.691Z,24.50
2022-12-08T19:02:45.946Z,31.65
2022-12-08T19:05:14.364Z,30.27
2022-12-08T19:07:42.380Z,24.75
2022-12-08T19:10:11.660Z,22.58
2022-12-08T19:12:39.249Z,32.80
2022-12-08T19:15:08.905Z,29.12
2022-12-08T19:17:36.320Z,19.45
2022-12-08T19:20:06.310Z,23.57
2022-12-08T19:22:34.350Z,24.87
2022-12-08T19:25:02.534Z,20.45
2022-12-08T19:27:30.200Z,22.62
2022-12-08T19:29:57.932Z,23.90
2022-12-08T19:32:26.230Z,24.98
2022-12-08T19:34:53.524Z,25.60
2022-12-08T19:37:21.262Z,20.90
2022-12-08T19:40:07.845Z,24.40
2022-12-08T19:42:54.360Z,23.20
2022-12-08T19:45:22.505Z,20.95
2022-12-08T19:47:50.366Z,21.70
2022-12-08T19:50:36.472Z,16.80
2022-12-08T19:53:11.521Z,15.83
2022-12-08T19:55:39.765Z,14.78
2022-12-08T19:58:09.424Z,14.90
2022-12-08T20:00:39.811Z,18.60
2022-12-08T20:03:07.936Z,15.95
2022-12-08T20:05:37.262Z,19.85
2022-12-08T20:08:05.675Z,20.45
2022-12-08T20:10:37.288Z,28.38
2022-12-08T20:13:24.326Z,24.40
2022-12-08T20:15:52.405Z,39.13
2022-12-08T20:18:20.356Z,27.20
2022-12-08T20:20:48.982Z,26.12
2022-12-08T20:23:17.482Z,10.38
2022-12-08T20:25:47.079Z,8.08
2022-12-08T20:28:14.701Z,7.87
2022-12-08T20:30:43.564Z,8.28
2022-12-08T20:33:13.275Z,13.83
2022-12-08T20:35:41.034Z,18.30
2022-12-08T20:38:09.528Z,18.07
2022-12-08T20:40:43.168Z,13.60
2022-12-08T20:45:38.205Z,11.80
2022-12-08T20:48:06.214Z,12.50
2022-12-08T20:50:33.858Z,11.45
2022-12-08T20:53:01.564Z,12.50
2022-12-08T20:55:29.345Z,10.48
2022-12-08T20:57:56.820Z,8.50
2022-12-08T21:00:27.362Z,8.88
2022-12-08T21:02:57.044Z,11.38
2022-12-08T21:05:24.931Z,11.05
2022-12-08T21:07:52.744Z,10.38
2022-12-08T21:10:20.509Z,10.53
2022-12-08T21:12:48.501Z,11.20
2022-12-08T21:15:16.243Z,10.23
2022-12-08T21:17:44.035Z,11.00
2022-12-08T21:20:12.094Z,10.90
2022-12-08T21:22:40.369Z,12.75
2022-12-08T21:25:09.228Z,11.10
2022-12-08T21:27:38.480Z,9.60
2022-12-08T21:30:08.372Z,10.58
2022-12-08T21:32:39.094Z,10.25
2022-12-08T21:35:08.696Z,13.22
2022-12-08T21:37:36.432Z,12.53
2022-12-08T21:40:06.493Z,16.02
2022-12-08T21:42:43.417Z,15.38
2022-12-08T21:45:18.148Z,16.75
2022-12-08T21:47:48.234Z,18.32
2022-12-08T21:50:16.790Z,19.02
2022-12-08T21:52:47.319Z,21.40
2022-12-08T21:55:18.392Z,20.65
2022-12-08T21:57:46.697Z,19.45
2022-12-08T22:00:17.311Z,18.90
2022-12-08T22:02:45.765Z,16.80
2022-12-08T22:05:13.676Z,16.10
2022-12-08T22:07:41.806Z,16.20
2022-12-08T22:10:11.367Z,18.23
2022-12-08T22:12:39.589Z,18.12
2022-12-08T22:15:10.593Z,14.95
2022-12-08T22:17:41.700Z,14.00
2022-12-08T22:20:13.683Z,12.60
2022-12-08T22:22:41.767Z,11.70
2022-12-08T22:25:11.385Z,9.43
2022-12-08T22:27:40.518Z,8.70
2022-12-08T22:30:10.429Z,12.82
2022-12-08T22:32:38.604Z,11.83
2022-12-08T22:35:07.540Z,10.43
2022-12-08T22:37:35.086Z,8.78
2022-12-08T22:40:03.488Z,7.90
2022-12-08T22:42:31.458Z,10.10
2022-12-08T22:44:59.428Z,9.53
2022-12-08T22:47:27.391Z,8.25
2022-12-08T22:49:55.185Z,6.83
2022-12-08T22:52:22.978Z,6.22
2022-12-08T22:54:50.404Z,5.67
2022-12-08T22:57:18.194Z,5.90
2022-12-08T22:59:46.045Z,6.10
2022-12-08T23:02:14.290Z,6.47
2022-12-08T23:04:42.369Z,6.17
2022-12-08T23:07:10.138Z,5.97
2022-12-08T23:09:38.048Z,6.37
2022-12-08T23:12:07.016Z,6.42
2022-12-08T23:14:35.044Z,6.05
2022-12-08T23:17:05.592Z,6.10
2022-12-08T23:19:36.466Z,7.50
2022-12-08T23:22:04.143Z,6.80
2022-12-08T23:24:31.825Z,7.35
2022-12-08T23:26:59.771Z,7.72
2022-12-08T23:29:27.771Z,7.05
2022-12-08T23:31:56.244Z,7.08
2022-12-08T23:34:24.190Z,7.15
2022-12-08T23:36:51.854Z,6.30
2022-12-08T23:39:21.570Z,6.47
2022-12-08T23:41:49.427Z,6.33
2022-12-08T23:44:17.302Z,6.17
2022-12-08T23:46:45.097Z,6.00
2022-12-08T23:49:12.969Z,6.10
2022-12-08T23:51:40.575Z,6.28
2022-12-08T23:54:08.387Z,6.40
2022-12-08T23:56:35.840Z,5.83
2022-12-08T23:59:03.662Z,5.60
